Time;durP1;ratioP1;P1;durP2;ratioP2;P2;SDS_P1;SDS_P2;PMS_P1;PMS_P2;Temp;Humidity;BMP_temperature;BMP_pressure;BME280_temperature;BME280_humidity;BME280_pressure;Samples;Min_cycle;Max_cycle;Signal;HPM_P1;HPM_P2
2023/06/14 00:00:07;;;;;;;4.25;2.83;;;20.90;53.50;;;;;;6271819;22;20044;-73
2023/06/14 00:02:33;;;;;;;6.25;2.67;;;20.90;53.60;;;;;;6271477;22;19995;-73
2023/06/14 00:04:59;;;;;;;6.63;3.03;;;20.80;53.80;;;;;;6244451;22;20007;-73
2023/06/14 00:07:34;;;;;;;5.00;2.83;;;20.70;54.00;;;;;;6271884;22;20011;-73
2023/06/14 00:10:00;;;;;;;3.88;2.55;;;20.70;54.20;;;;;;6271441;22;20095;-73
2023/06/14 00:12:26;;;;;;;3.28;2.78;;;20.60;54.20;;;;;;6272105;22;20433;-73
2023/06/14 00:14:51;;;;;;;4.93;3.65;;;20.60;54.50;;;;;;6271938;22;20024;-73
2023/06/14 00:17:17;;;;;;;4.38;3.38;;;20.60;54.50;;;;;;6271078;22;20007;-73
2023/06/14 00:19:42;;;;;;;6.40;3.25;;;20.50;54.50;;;;;;6272034;22;20050;-73
2023/06/14 00:22:09;;;;;;;7.10;3.70;;;20.50;54.70;;;;;;6271639;22;20337;-73
2023/06/14 00:24:35;;;;;;;3.38;2.80;;;20.50;54.80;;;;;;6272209;22;20441;-73
2023/06/14 00:27:00;;;;;;;9.43;3.20;;;20.50;55.00;;;;;;6271216;22;20000;-73
2023/06/14 00:29:26;;;;;;;4.35;3.42;;;20.40;55.00;;;;;;6272089;22;20000;-73
2023/06/14 00:31:51;;;;;;;6.20;2.83;;;20.40;55.20;;;;;;6271073;22;20046;-73
2023/06/14 00:34:17;;;;;;;4.43;3.17;;;20.40;55.40;;;;;;6271734;22;20026;-73
2023/06/14 00:36:42;;;;;;;5.60;3.35;;;20.40;55.60;;;;;;6271413;22;20031;-73
2023/06/14 00:39:09;;;;;;;7.55;3.33;;;20.30;55.60;;;;;;6271816;22;20015;-75
2023/06/14 00:41:35;;;;;;;7.75;3.22;;;20.30;55.80;;;;;;6273325;22;20027;-73
2023/06/14 00:44:00;;;;;;;3.80;3.35;;;20.20;55.90;;;;;;6246192;22;20474;-73
2023/06/14 00:46:26;;;;;;;6.57;3.42;;;20.30;56.00;;;;;;6273341;22;20003;-73
2023/06/14 00:48:52;;;;;;;7.60;3.17;;;20.10;56.10;;;;;;6273603;22;20417;-73
2023/06/14 00:51:18;;;;;;;3.97;3.03;;;20.10;56.10;;;;;;6246640;22;20007;-73
2023/06/14 00:53:46;;;;;;;3.67;2.60;;;20.10;56.30;;;;;;6273600;22;19996;-72
2023/06/14 00:56:13;;;;;;;8.05;3.08;;;20.10;56.30;;;;;;6273456;22;20011;-72
2023/06/14 00:58:39;;;;;;;6.13;2.70;;;20.10;56.30;;;;;;6273807;22;20011;-73
2023/06/14 01:01:04;;;;;;;5.35;3.38;;;20.10;56.30;;;;;;6272536;22;20015;-73
2023/06/14 01:03:31;;;;;;;7.63;2.85;;;20.10;56.30;;;;;;6273838;22;20049;-73
2023/06/14 01:06:14;;;;;;;5.70;2.50;;;20.00;56.30;;;;;;6272984;22;20010;-73
2023/06/14 01:09:01;;;;;;;5.60;3.38;;;20.00;56.40;;;;;;6273338;22;20003;-73
2023/06/14 01:11:57;;;;;;;4.35;2.70;;;20.00;56.60;;;;;;6273934;22;20023;-73
2023/06/14 01:14:25;;;;;;;6.18;2.88;;;20.00;56.70;;;;;;6244646;22;20086;-73
2023/06/14 01:16:52;;;;;;;4.95;2.67;;;20.00;56.70;;;;;;6273306;22;20006;-73
2023/06/14 01:19:22;;;;;;;6.05;3.03;;;20.00;56.70;;;;;;6273527;22;20008;-73
2023/06/14 01:21:50;;;;;;;5.13;2.92;;;19.90;56.70;;;;;;6273124;22;20372;-73
2023/06/14 01:24:19;;;;;;;4.28;3.05;;;19.90;56.90;;;;;;6273507;22;20070;-73
2023/06/14 01:26:51;;;;;;;3.97;2.63;;;19.90;57.00;;;;;;6245808;22;20405;-73
2023/06/14 01:29:17;;;;;;;5.15;3.33;;;19.90;57.10;;;;;;6272730;22;20365;-73
2023/06/14 01:31:43;;;;;;;5.63;3.22;;;19.80;56.90;;;;;;6273129;22;20000;-73
2023/06/14 01:34:09;;;;;;;6.25;3.60;;;19.90;57.10;;;;;;6273088;22;19996;-73
2023/06/14 01:36:38;;;;;;;5.22;3.05;;;19.80;57.10;;;;;;6273397;22;20002;-72
2023/06/14 01:39:05;;;;;;;7.35;2.78;;;19.80;57.20;;;;;;6272903;22;20015;-73
2023/06/14 01:41:31;;;;;;;3.55;2.55;;;19.80;57.40;;;;;;6246061;22;20456;-73
2023/06/14 01:43:58;;;;;;;7.80;2.42;;;19.70;57.40;;;;;;6272331;22;20018;-73
2023/06/14 01:46:25;;;;;;;7.78;3.28;;;19.70;57.50;;;;;;6273414;22;20026;-73
2023/06/14 01:48:51;;;;;;;5.72;2.88;;;19.70;57.70;;;;;;6273056;22;20007;-72
2023/06/14 01:51:16;;;;;;;7.30;3.22;;;19.60;57.70;;;;;;6245593;22;20333;-73
2023/06/14 01:53:42;;;;;;;5.22;2.83;;;19.60;57.80;;;;;;6272882;22;20003;-72
2023/06/14 01:56:07;;;;;;;9.38;3.33;;;19.60;57.90;;;;;;6273079;22;20465;-73
2023/06/14 01:58:33;;;;;;;7.03;3.28;;;19.60;57.90;;;;;;6272602;22;20000;-73
2023/06/14 02:01:00;;;;;;;3.60;2.50;;;19.60;58.10;;;;;;6272425;22;20342;-72
2023/06/14 02:03:26;;;;;;;2.60;2.15;;;19.50;58.30;;;;;;6273732;22;20393;-72
2023/06/14 02:05:52;;;;;;;4.97;3.25;;;19.50;58.40;;;;;;6272801;22;20000;-72
2023/06/14 02:08:17;;;;;;;4.85;2.45;;;19.40;58.50;;;;;;6272956;22;20003;-72
2023/06/14 02:10:43;;;;;;;7.38;2.83;;;19.40;58.50;;;;;;6272920;22;20007;-72
2023/06/14 02:13:09;;;;;;;8.18;2.65;;;19.40;58.70;;;;;;6272382;22;20066;-72
2023/06/14 02:15:35;;;;;;;6.18;2.55;;;19.40;58.90;;;;;;6273585;22;20010;-73
2023/06/14 02:18:04;;;;;;;6.60;2.53;;;19.30;58.90;;;;;;6272988;22;20000;-73
2023/06/14 02:20:30;;;;;;;2.58;2.17;;;19.30;59.00;;;;;;6246821;22;20362;-73
2023/06/14 02:22:56;;;;;;;4.32;2.58;;;19.30;59.00;;;;;;6273117;22;19995;-73
2023/06/14 02:25:22;;;;;;;7.82;3.00;;;19.30;59.20;;;;;;6272849;22;20000;-73
2023/06/14 02:27:47;;;;;;;2.97;2.65;;;19.20;59.30;;;;;;6243715;22;20116;-72
2023/06/14 02:30:13;;;;;;;5.18;2.60;;;19.20;59.50;;;;;;6269505;22;20014;-72
2023/06/14 02:32:40;;;;;;;4.05;2.50;;;19.20;60.00;;;;;;6272323;22;20001;-72
2023/06/14 02:35:06;;;;;;;6.25;2.80;;;19.20;59.50;;;;;;6272085;22;20398;-73
2023/06/14 02:37:32;;;;;;;6.20;2.35;;;19.20;59.70;;;;;;6272842;22;20431;-73
2023/06/14 02:39:58;;;;;;;4.50;2.78;;;19.10;59.80;;;;;;6271906;22;20014;-73
2023/06/14 02:42:24;;;;;;;2.92;2.13;;;19.10;60.50;;;;;;6272363;22;20011;-72
2023/06/14 02:44:51;;;;;;;4.90;2.75;;;19.10;59.90;;;;;;6245175;22;19999;-72
2023/06/14 02:47:17;;;;;;;5.82;3.20;;;19.10;60.00;;;;;;6272282;22;20004;-72
2023/06/14 02:49:43;;;;;;;6.25;3.05;;;19.00;60.10;;;;;;6272415;22;19999;-72
2023/06/14 02:52:09;;;;;;;4.65;2.20;;;19.00;60.20;;;;;;6272274;22;20061;-73
2023/06/14 02:54:35;;;;;;;10.02;2.60;;;19.00;60.20;;;;;;6272228;22;20000;-72
2023/06/14 02:57:02;;;;;;;7.47;2.58;;;18.90;60.30;;;;;;6271549;22;20332;-72
2023/06/14 02:59:27;;;;;;;7.38;2.80;;;18.90;61.10;;;;;;6272297;22;20012;-72
2023/06/14 03:01:53;;;;;;;5.20;2.90;;;18.90;60.50;;;;;;6272106;22;20068;-72
2023/06/14 03:04:19;;;;;;;4.18;2.13;;;18.90;60.50;;;;;;6244754;22;20463;-73
2023/06/14 03:06:50;;;;;;;5.35;3.58;;;18.90;60.70;;;;;;6272427;22;20010;-72
2023/06/14 03:09:16;;;;;;;3.90;2.00;;;18.80;60.70;;;;;;6272247;22;20038;-73
2023/06/14 03:11:41;;;;;;;7.72;2.25;;;18.80;60.80;;;;;;6244682;22;20011;-72
2023/06/14 03:14:08;;;;;;;4.32;2.22;;;18.80;60.90;;;;;;6272205;22;20446;-72
2023/06/14 03:16:33;;;;;;;3.17;2.33;;;18.70;61.00;;;;;;6245424;22;20006;-72
2023/06/14 03:18:59;;;;;;;5.47;2.90;;;18.70;61.00;;;;;;6271780;22;20033;-72
2023/06/14 03:21:25;;;;;;;5.32;2.30;;;18.70;61.20;;;;;;6272558;22;20014;-73
2023/06/14 03:23:52;;;;;;;4.65;2.42;;;18.70;61.30;;;;;;6272179;22;20065;-73
2023/06/14 03:26:18;;;;;;;4.43;2.20;;;18.70;62.00;;;;;;6272270;22;20091;-73
2023/06/14 03:28:48;;;;;;;5.32;2.58;;;18.60;61.40;;;;;;6272184;22;19992;-73
2023/06/14 03:31:15;;;;;;;8.15;2.30;;;18.60;61.60;;;;;;6272255;22;20011;-72
2023/06/14 03:33:40;;;;;;;8.07;3.15;;;18.60;61.80;;;;;;6272308;22;19996;-72
2023/06/14 03:36:09;;;;;;;5.57;2.88;;;18.60;61.90;;;;;;6272049;22;19996;-72
2023/06/14 03:38:35;;;;;;;5.75;3.10;;;18.60;62.00;;;;;;6271808;22;20057;-73
2023/06/14 03:41:00;;;;;;;5.13;3.03;;;18.60;62.10;;;;;;6272064;22;20316;-72
2023/06/14 03:43:26;;;;;;;5.65;2.63;;;18.50;62.00;;;;;;6272322;22;20010;-72
2023/06/14 03:45:52;;;;;;;5.15;3.00;;;18.50;62.20;;;;;;6272187;22;20011;-72
2023/06/14 03:48:18;;;;;;;5.68;2.70;;;18.50;62.40;;;;;;6246094;22;20429;-72
2023/06/14 03:50:44;;;;;;;3.85;2.42;;;18.50;62.50;;;;;;6272166;22;20018;-72
2023/06/14 03:53:10;;;;;;;8.50;2.20;;;18.50;62.50;;;;;;6270802;22;20015;-72
2023/06/14 03:55:35;;;;;;;4.40;2.80;;;18.40;62.60;;;;;;6272488;22;20004;-72
2023/06/14 03:58:01;;;;;;;6.25;2.55;;;18.40;62.70;;;;;;6271752;22;20071;-73
2023/06/14 04:00:27;;;;;;;4.75;2.63;;;18.40;62.80;;;;;;6244854;22;20020;-72
2023/06/14 04:02:53;;;;;;;6.47;2.63;;;18.40;62.90;;;;;;6271855;22;20311;-72
2023/06/14 04:05:20;;;;;;;3.30;2.60;;;18.30;62.90;;;;;;6272365;22;20068;-73
2023/06/14 04:07:48;;;;;;;3.78;2.40;;;18.30;63.10;;;;;;6244434;22;20000;-72
2023/06/14 04:10:15;;;;;;;5.00;2.13;;;18.30;63.30;;;;;;6272041;22;20014;-73
2023/06/14 04:12:41;;;;;;;4.85;2.55;;;18.30;63.30;;;;;;6272086;22;20034;-72
2023/06/14 04:15:07;;;;;;;6.25;3.10;;;18.30;63.40;;;;;;6272439;22;20000;-72
2023/06/14 04:17:33;;;;;;;5.57;2.70;;;18.30;63.50;;;;;;6274186;22;20004;-72
2023/06/14 04:20:00;;;;;;;4.95;2.38;;;18.30;63.40;;;;;;6246373;22;20004;-72
2023/06/14 04:22:28;;;;;;;4.45;2.90;;;18.30;63.50;;;;;;6273564;22;20022;-73
2023/06/14 04:24:56;;;;;;;8.88;3.20;;;18.30;63.50;;;;;;6246348;22;19996;-73
2023/06/14 04:27:25;;;;;;;3.20;2.70;;;18.30;63.50;;;;;;6274411;22;20007;-73
2023/06/14 04:29:59;;;;;;;4.45;2.63;;;18.30;63.60;;;;;;6273921;22;20082;-73
2023/06/14 04:32:26;;;;;;;4.63;2.35;;;18.30;63.70;;;;;;6247192;22;20006;-73
2023/06/14 04:34:53;;;;;;;4.63;2.20;;;18.30;63.70;;;;;;6274130;22;20436;-73
2023/06/14 04:37:20;;;;;;;4.82;2.78;;;18.40;63.90;;;;;;6246889;22;20405;-74
2023/06/14 04:39:47;;;;;;;6.50;2.92;;;18.40;63.90;;;;;;6274148;22;20000;-73
2023/06/14 04:42:14;;;;;;;5.07;2.45;;;18.40;63.90;;;;;;6273992;22;20736;-73
2023/06/14 04:44:41;;;;;;;6.10;3.15;;;18.40;64.10;;;;;;6273797;22;20004;-73
2023/06/14 04:47:07;;;;;;;7.10;2.47;;;18.40;64.10;;;;;;6273357;22;20010;-73
2023/06/14 04:49:33;;;;;;;10.25;2.70;;;18.40;64.10;;;;;;6274039;22;20004;-73
2023/06/14 04:52:01;;;;;;;4.63;2.92;;;18.40;64.10;;;;;;6272884;22;20366;-73
2023/06/14 04:54:27;;;;;;;4.68;2.40;;;18.40;64.10;;;;;;6246779;22;20078;-73
2023/06/14 04:56:54;;;;;;;3.58;2.85;;;18.40;64.10;;;;;;6273735;22;20051;-73
2023/06/14 04:59:22;;;;;;;8.00;2.63;;;18.50;64.20;;;;;;6273768;22;20022;-73
2023/06/14 05:01:49;;;;;;;7.93;2.45;;;18.50;64.30;;;;;;6246530;22;20379;-73
2023/06/14 05:04:15;;;;;;;4.22;2.80;;;18.50;64.10;;;;;;6273570;22;20011;-73
2023/06/14 05:06:44;;;;;;;4.50;2.70;;;18.60;64.10;;;;;;6273132;22;20011;-73
2023/06/14 05:09:13;;;;;;;6.35;2.80;;;18.60;64.80;;;;;;6273561;22;20010;-72
2023/06/14 05:11:39;;;;;;;7.40;3.40;;;18.60;64.30;;;;;;6246734;22;20090;-72
2023/06/14 05:14:06;;;;;;;5.30;2.95;;;18.70;64.30;;;;;;6273373;22;20071;-72
2023/06/14 05:16:31;;;;;;;5.90;2.90;;;18.70;64.20;;;;;;6273994;22;20006;-73
2023/06/14 05:18:57;;;;;;;4.13;2.58;;;18.80;64.20;;;;;;6272835;22;19992;-72
2023/06/14 05:21:23;;;;;;;5.15;2.70;;;18.80;64.20;;;;;;6273269;22;20310;-73
2023/06/14 05:23:50;;;;;;;3.60;2.47;;;18.80;64.10;;;;;;6273261;22;20070;-72
2023/06/14 05:26:16;;;;;;;6.20;3.13;;;18.80;64.10;;;;;;6271468;22;20004;-72
2023/06/14 05:28:41;;;;;;;3.60;2.75;;;18.90;64.00;;;;;;6269908;22;20443;-71
2023/06/14 05:31:07;;;;;;;6.38;2.65;;;18.90;64.50;;;;;;6268325;22;20445;-72
2023/06/14 05:33:32;;;;;;;5.38;2.72;;;19.00;63.80;;;;;;6272295;22;20007;-71
2023/06/14 05:35:58;;;;;;;5.22;3.17;;;19.00;63.80;;;;;;6244256;22;20003;-72
2023/06/14 05:38:23;;;;;;;7.00;2.78;;;19.00;63.80;;;;;;6272351;22;20010;-72
2023/06/14 05:40:49;;;;;;;4.57;2.67;;;19.00;63.80;;;;;;6273353;22;20015;-73
2023/06/14 05:43:15;;;;;;;4.72;2.83;;;19.10;63.70;;;;;;6273140;22;19995;-72
2023/06/14 05:45:43;;;;;;;3.70;2.17;;;19.10;63.60;;;;;;6273023;22;19996;-73
2023/06/14 05:48:08;;;;;;;3.70;3.28;;;19.20;63.90;;;;;;6273217;22;20006;-71
2023/06/14 05:50:34;;;;;;;4.07;3.17;;;19.20;63.70;;;;;;6272952;22;19996;-72
2023/06/14 05:52:59;;;;;;;3.85;2.22;;;19.30;63.80;;;;;;6272721;22;20010;-72
2023/06/14 05:55:25;;;;;;;8.38;3.60;;;19.30;63.70;;;;;;6273484;22;20002;-73
2023/06/14 05:57:51;;;;;;;4.22;2.67;;;19.30;63.60;;;;;;6246152;22;20008;-73
2023/06/14 06:00:17;;;;;;;5.80;3.35;;;19.40;63.50;;;;;;6273536;22;20344;-72
2023/06/14 06:02:44;;;;;;;8.45;3.45;;;19.50;63.60;;;;;;6273146;22;20004;-72
2023/06/14 06:05:10;;;;;;;3.78;2.58;;;19.50;63.70;;;;;;6272516;22;20000;-72
2023/06/14 06:07:37;;;;;;;5.47;2.63;;;19.60;63.50;;;;;;6273082;22;20286;-72
2023/06/14 06:10:04;;;;;;;6.25;2.60;;;19.60;63.50;;;;;;6272596;22;20004;-73
2023/06/14 06:12:30;;;;;;;5.35;3.30;;;19.60;64.20;;;;;;6273046;22;20023;-74
2023/06/14 06:14:56;;;;;;;7.10;3.25;;;19.70;63.50;;;;;;6272105;22;20003;-72
2023/06/14 06:17:21;;;;;;;4.57;3.03;;;19.70;63.50;;;;;;6272682;22;20007;-73
2023/06/14 06:19:47;;;;;;;10.30;3.63;;;19.70;63.60;;;;;;6271903;22;20008;-72
2023/06/14 06:22:12;;;;;;;3.22;2.78;;;19.80;63.70;;;;;;6245327;22;20011;-74
2023/06/14 06:24:38;;;;;;;6.75;2.85;;;19.90;63.60;;;;;;6245318;22;20004;-73
2023/06/14 06:27:04;;;;;;;6.72;3.53;;;19.90;63.70;;;;;;6245146;22;20010;-71
2023/06/14 06:29:29;;;;;;;4.55;3.03;;;20.00;63.50;;;;;;6245421;22;20033;-73
2023/06/14 06:31:56;;;;;;;3.72;3.00;;;20.10;63.60;;;;;;6244996;22;20688;-73
2023/06/14 06:34:22;;;;;;;7.28;2.95;;;20.10;63.50;;;;;;6245515;22;20006;-72
2023/06/14 06:36:48;;;;;;;7.68;3.95;;;20.20;63.60;;;;;;6245500;22;20027;-71
2023/06/14 06:39:14;;;;;;;5.03;3.00;;;20.30;63.20;;;;;;6245334;22;20042;-73
2023/06/14 06:41:40;;;;;;;9.55;3.85;;;20.40;63.00;;;;;;6272913;22;20000;-73
2023/06/14 06:44:07;;;;;;;6.43;2.80;;;20.40;63.00;;;;;;6245487;22;20007;-74
2023/06/14 06:46:33;;;;;;;4.00;3.00;;;20.50;62.40;;;;;;6272885;22;20003;-73
2023/06/14 06:48:59;;;;;;;4.53;2.70;;;20.50;61.90;;;;;;6271644;22;19999;-73
2023/06/14 06:51:24;;;;;;;4.53;2.50;;;20.60;61.80;;;;;;6245740;22;20004;-73
2023/06/14 06:53:54;;;;;;;3.38;2.92;;;20.60;62.00;;;;;;6272350;22;20031;-73
2023/06/14 06:56:21;;;;;;;3.78;3.00;;;20.70;62.00;;;;;;6272820;22;20087;-73
2023/06/14 06:58:47;;;;;;;5.00;3.05;;;20.80;61.80;;;;;;6272095;22;20000;-74
2023/06/14 07:01:13;;;;;;;3.45;2.85;;;20.90;61.80;;;;;;6271060;22;20345;-75
2023/06/14 07:03:38;;;;;;;8.20;3.10;;;20.90;62.50;;;;;;6266553;22;20000;-73
2023/06/14 07:06:04;;;;;;;4.88;2.92;;;21.10;61.20;;;;;;6269777;22;20058;-73
2023/06/14 07:08:29;;;;;;;6.40;3.00;;;21.10;60.70;;;;;;6272223;22;20004;-73
2023/06/14 07:10:55;;;;;;;7.28;2.60;;;21.00;60.80;;;;;;6271457;22;20029;-74
2023/06/14 07:13:21;;;;;;;5.10;2.47;;;21.10;61.00;;;;;;6244216;22;20004;-73
2023/06/14 07:15:47;;;;;;;3.00;2.28;;;21.20;60.80;;;;;;6271435;22;20007;-73
2023/06/14 07:18:13;;;;;;;3.47;2.35;;;21.30;60.80;;;;;;6271217;22;20067;-74
2023/06/14 07:20:38;;;;;;;3.55;2.60;;;21.40;60.80;;;;;;6271390;22;20096;-74
2023/06/14 07:23:05;;;;;;;5.22;2.45;;;21.50;61.40;;;;;;6243756;22;20011;-73
2023/06/14 07:25:31;;;;;;;3.40;2.10;;;21.50;60.50;;;;;;6243281;22;20003;-73
2023/06/14 07:27:56;;;;;;;6.05;2.67;;;21.50;60.10;;;;;;6244127;22;20053;-75
2023/06/14 07:30:25;;;;;;;6.45;2.78;;;21.60;60.00;;;;;;6271787;22;20049;-72
2023/06/14 07:32:52;;;;;;;3.03;2.20;;;21.70;59.60;;;;;;6271517;22;20004;-72
2023/06/14 07:35:18;;;;;;;3.92;2.38;;;21.80;59.90;;;;;;6270790;22;20004;-72
2023/06/14 07:37:43;;;;;;;4.85;2.35;;;21.90;59.40;;;;;;6271315;22;20007;-72
2023/06/14 07:40:10;;;;;;;5.63;2.58;;;21.90;59.00;;;;;;6271823;22;20724;-72
2023/06/14 07:42:36;;;;;;;7.07;2.30;;;22.00;58.80;;;;;;6245261;22;20034;-72
2023/06/14 07:45:03;;;;;;;3.53;1.95;;;22.10;58.50;;;;;;6271413;22;19996;-72
2023/06/14 07:47:28;;;;;;;2.72;2.25;;;22.20;58.30;;;;;;6269700;22;20015;-72
2023/06/14 07:49:54;;;;;;;4.75;2.08;;;22.30;58.30;;;;;;6271128;22;20000;-72
2023/06/14 07:52:20;;;;;;;3.28;1.73;;;22.40;57.90;;;;;;6271937;22;20004;-72
2023/06/14 07:54:45;;;;;;;6.05;1.55;;;22.50;57.60;;;;;;6272066;22;20000;-72
2023/06/14 07:57:11;;;;;;;2.33;1.80;;;22.60;57.00;;;;;;6243682;22;20453;-72
2023/06/14 07:59:36;;;;;;;2.30;1.42;;;22.70;56.40;;;;;;6271262;22;20070;-72
2023/06/14 08:02:02;;;;;;;3.67;1.63;;;22.80;56.40;;;;;;6244804;22;20418;-72
2023/06/14 08:04:27;;;;;;;1.42;1.15;;;22.90;56.30;;;;;;6271755;22;20436;-70
2023/06/14 08:06:53;;;;;;;2.05;1.45;;;23.10;56.00;;;;;;6271521;22;20475;-72
2023/06/14 08:09:19;;;;;;;2.45;1.45;;;23.20;55.80;;;;;;6270389;22;20485;-72
2023/06/14 08:11:45;;;;;;;3.47;1.20;;;23.30;54.40;;;;;;6271636;22;20057;-72
2023/06/14 08:14:11;;;;;;;3.08;2.00;;;23.30;54.50;;;;;;6243727;22;20000;-72
2023/06/14 08:16:37;;;;;;;3.80;1.52;;;23.40;54.50;;;;;;6272039;22;20003;-71
2023/06/14 08:19:03;;;;;;;3.38;1.05;;;23.50;54.20;;;;;;6242829;22;20373;-72
2023/06/14 08:21:29;;;;;;;2.42;1.15;;;23.60;53.90;;;;;;6244508;22;20418;-72
2023/06/14 08:23:55;;;;;;;3.15;1.05;;;23.70;54.10;;;;;;6271233;22;20053;-73
2023/06/14 08:26:20;;;;;;;2.17;1.20;;;23.80;54.20;;;;;;6272303;22;20011;-73
2023/06/14 08:28:46;;;;;;;3.55;1.30;;;23.90;52.70;;;;;;6243441;22;20007;-73
2023/06/14 08:31:12;;;;;;;2.50;1.70;;;23.90;52.30;;;;;;6269861;22;20193;-73
2023/06/14 08:33:39;;;;;;;4.00;1.52;;;23.90;52.00;;;;;;6271553;22;20000;-73
2023/06/14 08:36:04;;;;;;;3.63;1.60;;;24.00;52.50;;;;;;6270868;22;20435;-73
2023/06/14 08:38:30;;;;;;;3.92;1.15;;;24.00;52.60;;;;;;6272110;22;20023;-73
2023/06/14 08:40:58;;;;;;;3.58;1.27;;;24.10;52.50;;;;;;6242100;22;20011;-73
2023/06/14 08:43:23;;;;;;;2.30;1.40;;;24.20;52.30;;;;;;6271365;22;20000;-72
2023/06/14 08:45:57;;;;;;;3.53;1.75;;;24.20;52.20;;;;;;6244186;22;20448;-73
2023/06/14 08:48:25;;;;;;;3.58;1.73;;;24.30;52.00;;;;;;6244223;22;20004;-72
2023/06/14 08:50:53;;;;;;;4.53;2.13;;;24.20;52.20;;;;;;6271462;22;19996;-72
2023/06/14 08:53:20;;;;;;;4.60;1.75;;;24.30;52.30;;;;;;6270643;22;20007;-73
2023/06/14 08:55:47;;;;;;;4.53;1.58;;;24.30;51.40;;;;;;6271177;22;19996;-73
2023/06/14 08:58:14;;;;;;;2.42;2.03;;;24.30;49.90;;;;;;6270478;22;20359;-74
2023/06/14 09:00:42;;;;;;;3.15;1.40;;;24.30;50.00;;;;;;6243992;22;20098;-73
2023/06/14 09:03:13;;;;;;;2.15;1.60;;;24.30;50.20;;;;;;6271163;22;20484;-73
2023/06/14 09:05:39;;;;;;;3.90;1.25;;;24.30;49.90;;;;;;6272754;22;20078;-73
2023/06/14 09:08:05;;;;;;;3.83;1.55;;;24.40;50.10;;;;;;6273430;22;20024;-74
2023/06/14 09:10:33;;;;;;;1.73;1.17;;;24.40;50.60;;;;;;6273449;22;20492;-73
2023/06/14 09:13:00;;;;;;;2.35;2.05;;;24.50;50.60;;;;;;6244240;22;20043;-73
2023/06/14 09:15:26;;;;;;;2.05;1.45;;;24.60;51.10;;;;;;6272447;22;20011;-74
2023/06/14 09:17:53;;;;;;;2.70;1.55;;;24.60;50.90;;;;;;6273710;22;20374;-74
2023/06/14 09:20:19;;;;;;;4.72;1.48;;;24.70;49.80;;;;;;6273979;22;20043;-73
2023/06/14 09:22:45;;;;;;;2.33;1.35;;;24.70;49.80;;;;;;6246366;22;20102;-73
2023/06/14 09:25:12;;;;;;;5.00;2.20;;;24.70;50.00;;;;;;6271089;22;20011;-73
2023/06/14 09:27:39;;;;;;;3.17;1.42;;;24.70;49.80;;;;;;6244811;22;20007;-73
2023/06/14 09:30:08;;;;;;;3.08;1.58;;;24.70;50.20;;;;;;6272743;22;20018;-73
2023/06/14 09:32:37;;;;;;;5.30;1.60;;;24.70;50.10;;;;;;6273140;22;20082;-73
2023/06/14 09:35:03;;;;;;;2.33;1.30;;;24.70;50.60;;;;;;6272490;22;20008;-73
2023/06/14 09:37:29;;;;;;;2.83;1.35;;;24.80;50.60;;;;;;6271905;22;20032;-72
2023/06/14 09:39:55;;;;;;;2.70;1.38;;;24.90;49.70;;;;;;6245477;22;20311;-73
2023/06/14 09:42:22;;;;;;;3.20;1.10;;;24.80;49.10;;;;;;6273234;22;20110;-72
2023/06/14 09:44:49;;;;;;;1.83;0.95;;;24.80;48.90;;;;;;6271771;22;20000;-72
2023/06/14 09:47:18;;;;;;;5.55;1.08;;;24.80;48.60;;;;;;6271455;22;20003;-73
2023/06/14 09:49:44;;;;;;;2.00;1.20;;;24.80;49.30;;;;;;6271527;22;20053;-73
2023/06/14 09:52:18;;;;;;;4.07;1.70;;;24.80;49.30;;;;;;6271124;22;20003;-73
2023/06/14 09:54:49;;;;;;;1.20;1.02;;;24.90;49.40;;;;;;6272435;22;20003;-72
2023/06/14 09:57:20;;;;;;;1.83;1.70;;;24.90;49.80;;;;;;6271002;22;20142;-73
2023/06/14 09:59:47;;;;;;;3.28;1.63;;;25.00;49.30;;;;;;6271962;22;20016;-74
2023/06/14 10:02:18;;;;;;;2.80;1.35;;;25.00;50.00;;;;;;6272557;22;20000;-73
2023/06/14 10:04:50;;;;;;;3.05;1.75;;;25.00;49.60;;;;;;6271446;22;20022;-73
2023/06/14 10:07:19;;;;;;;3.45;1.30;;;25.00;49.70;;;;;;6272727;22;20006;-73
2023/06/14 10:09:49;;;;;;;3.33;1.42;;;25.10;50.10;;;;;;6245621;22;20008;-73
2023/06/14 10:12:20;;;;;;;3.50;1.00;;;25.10;49.40;;;;;;6272226;22;20038;-74
2023/06/14 10:14:52;;;;;;;5.05;1.20;;;25.20;48.80;;;;;;6245273;22;20006;-74
2023/06/14 10:17:39;;;;;;;5.38;1.42;;;25.20;48.80;;;;;;6272381;22;20069;-72
2023/06/14 10:20:18;;;;;;;4.07;1.70;;;25.20;48.20;;;;;;6272272;22;19992;-73
2023/06/14 10:22:58;;;;;;;3.20;1.30;;;25.20;47.90;;;;;;6272700;22;20003;-74
2023/06/14 10:25:28;;;;;;;3.72;1.25;;;25.20;48.20;;;;;;6272104;22;20046;-74
2023/06/14 10:28:24;;;;;;;2.40;1.30;;;25.10;48.40;;;;;;6272271;22;19996;-74
2023/06/14 10:31:07;;;;;;;2.22;1.00;;;25.00;48.80;;;;;;6270688;22;20396;-74
2023/06/14 10:33:40;;;;;;;1.48;1.25;;;25.10;49.00;;;;;;6272287;22;20004;-74
2023/06/14 10:36:08;;;;;;;2.40;1.10;;;25.10;48.80;;;;;;6245176;22;20023;-74
2023/06/14 10:38:37;;;;;;;4.60;0.90;;;25.10;49.20;;;;;;6270167;22;19995;-75
2023/06/14 10:41:04;;;;;;;2.70;1.23;;;25.10;49.50;;;;;;6271528;22;19999;-72
2023/06/14 10:43:30;;;;;;;3.45;1.00;;;25.20;49.00;;;;;;6272716;22;20018;-72
2023/06/14 10:46:17;;;;;;;2.65;1.83;;;25.20;49.00;;;;;;6244669;22;20422;-73
2023/06/14 10:48:44;;;;;;;2.30;1.17;;;25.30;48.90;;;;;;6272420;22;20095;-72
2023/06/14 10:51:20;;;;;;;2.60;1.30;;;25.30;48.60;;;;;;6272036;22;20298;-71
2023/06/14 10:53:50;;;;;;;4.57;1.42;;;25.30;48.90;;;;;;6272078;22;20000;-72
2023/06/14 10:56:33;;;;;;;4.15;1.13;;;25.30;48.30;;;;;;6271308;22;20011;-73
2023/06/14 10:58:58;;;;;;;1.75;1.00;;;25.30;48.30;;;;;;6272075;22;20070;-73
2023/06/14 11:01:41;;;;;;;3.15;1.25;;;25.30;48.10;;;;;;6245047;22;20034;-73
2023/06/14 11:04:11;;;;;;;3.25;1.20;;;25.20;47.80;;;;;;6272318;22;20042;-73
2023/06/14 11:06:52;;;;;;;2.47;1.42;;;25.20;47.80;;;;;;6272672;22;20412;-73
2023/06/14 11:09:27;;;;;;;3.85;1.13;;;25.20;47.30;;;;;;6271733;22;20000;-72
2023/06/14 11:11:55;;;;;;;2.72;1.20;;;25.00;47.10;;;;;;6272302;22;20007;-72
2023/06/14 11:14:21;;;;;;;1.63;1.00;;;25.00;47.80;;;;;;6272571;22;19999;-72
2023/06/14 11:16:50;;;;;;;1.65;1.10;;;25.00;48.00;;;;;;6272171;22;20008;-73
2023/06/14 11:19:17;;;;;;;3.55;1.30;;;25.00;48.40;;;;;;6245154;22;20011;-73
2023/06/14 11:21:46;;;;;;;5.65;1.10;;;25.10;47.90;;;;;;6272274;22;20021;-73
2023/06/14 11:24:12;;;;;;;2.08;1.48;;;25.10;48.00;;;;;;6271182;22;20098;-73
2023/06/14 11:26:38;;;;;;;3.70;1.55;;;25.10;48.10;;;;;;6272137;22;20434;-73
2023/06/14 11:29:04;;;;;;;3.70;1.10;;;25.10;48.50;;;;;;6244916;22;20426;-73
2023/06/14 11:31:30;;;;;;;5.00;1.33;;;25.10;48.30;;;;;;6272650;22;19999;-73
2023/06/14 11:33:57;;;;;;;1.92;1.33;;;25.10;48.30;;;;;;6271760;22;20321;-73
2023/06/14 11:36:30;;;;;;;2.85;1.05;;;25.10;48.30;;;;;;6245457;22;20019;-73
2023/06/14 11:39:05;;;;;;;1.90;1.23;;;25.10;48.30;;;;;;6271402;22;20070;-74
2023/06/14 11:41:44;;;;;;;4.50;1.20;;;25.10;48.80;;;;;;6245017;22;19999;-73
2023/06/14 11:44:11;;;;;;;2.63;1.50;;;25.10;49.30;;;;;;6244888;22;20374;-73
2023/06/14 11:46:37;;;;;;;2.60;1.08;;;25.10;48.30;;;;;;6272491;22;20468;-73
2023/06/14 11:49:04;;;;;;;2.85;1.10;;;25.00;47.90;;;;;;6271668;22;20000;-73
2023/06/14 11:51:34;;;;;;;2.78;1.30;;;25.00;47.80;;;;;;6244730;22;20346;-73
2023/06/14 11:54:02;;;;;;;4.53;1.75;;;25.00;47.80;;;;;;6271722;22;20134;-72
2023/06/14 11:56:29;;;;;;;1.70;1.02;;;25.00;47.40;;;;;;6271906;22;20302;-72
2023/06/14 11:58:58;;;;;;;3.55;1.63;;;24.90;47.50;;;;;;6271311;22;19996;-73
2023/06/14 12:01:24;;;;;;;3.90;1.50;;;24.90;48.10;;;;;;6272182;22;20058;-73
2023/06/14 12:03:50;;;;;;;2.97;1.42;;;24.90;48.60;;;;;;6272086;22;20004;-74
2023/06/14 12:06:25;;;;;;;2.67;0.95;;;24.90;48.90;;;;;;6271637;22;20000;-71
2023/06/14 12:08:50;;;;;;;5.43;1.05;;;24.90;48.30;;;;;;6271920;22;20004;-73
2023/06/14 12:11:16;;;;;;;5.32;1.48;;;24.90;48.10;;;;;;6272168;22;20000;-73
2023/06/14 12:13:43;;;;;;;1.67;1.00;;;24.90;48.50;;;;;;6244818;22;20031;-73
2023/06/14 12:16:12;;;;;;;1.50;1.00;;;24.90;48.50;;;;;;6244151;22;20043;-73
2023/06/14 12:18:39;;;;;;;1.85;0.90;;;24.90;48.10;;;;;;6268995;22;20002;-73
2023/06/14 12:21:09;;;;;;;3.67;1.30;;;25.00;48.10;;;;;;6269017;22;20026;-72
2023/06/14 12:23:46;;;;;;;1.45;1.02;;;25.00;47.90;;;;;;6270048;22;20000;-72
2023/06/14 12:26:15;;;;;;;2.55;1.33;;;24.90;48.20;;;;;;6269230;22;19999;-71
2023/06/14 12:28:43;;;;;;;2.63;1.17;;;25.00;48.30;;;;;;6269388;22;20003;-72
2023/06/14 12:31:09;;;;;;;3.58;1.63;;;25.00;48.60;;;;;;6269477;22;20370;-72
2023/06/14 12:33:34;;;;;;;3.55;1.33;;;25.00;48.80;;;;;;6271866;22;20134;-72
2023/06/14 12:36:02;;;;;;;2.05;1.40;;;25.00;48.40;;;;;;6271479;22;20057;-71
2023/06/14 12:38:28;;;;;;;4.28;1.25;;;25.00;48.60;;;;;;6273939;22;20082;-72
2023/06/14 12:40:53;;;;;;;5.63;1.70;;;25.00;49.20;;;;;;6246233;22;20035;-71
2023/06/14 12:43:19;;;;;;;2.17;1.27;;;25.00;49.40;;;;;;6274338;22;20432;-71
2023/06/14 12:45:44;;;;;;;3.72;1.50;;;25.10;49.50;;;;;;6273827;22;20090;-72